Aeroporto :
LOGIN :

Iscrizione | Disclaimer

   EN    FR    IT 

 










Sommario :    VFR   VFR Marginale   IFR   IFR Intensivo   IFR Molto Intensivo
Visibilità : 
Base nubi : 
>= 8 km
>= 3000ft
5 / 8 km
1000 / 3000 ft
1500m / 5 km
500 / 1000 ft
800 / 1500m
200 / 500 ft
< 800m
< 200 ft
Simboli :   Temporali  Nebbia  Neve Forte  Precipitazioni Forti  Vento > 20 kt
SIGMETs :   Varie  Temporali  Ghiacco  Turbolenza  Onda orograficha  Ceneri Vulcaniche






- Altitudine del aeroporto : 468 ft
- Codice IATA : GRO


LEGE - Girona Costa Brava

ULTIMO METAR :
  • 272300Z 32005KT CAVOK 11/06 Q1016

METARs OBSOLETI :
  • 272230Z 32003KT 290V010 CAVOK 11/06 Q1016
  • 272200Z 01005KT CAVOK 10/07 Q1016
  • 272130Z 01006KT CAVOK 11/07 Q1015
  • 272100Z 36006KT 320V030 CAVOK 12/07 Q1015
  • 272030Z 02006KT CAVOK 11/07 Q1014

TAF TAF LEGE
Valido dal 27 a 18 ore il 28 a 18 ore UTC


271700Z 2718/2818 VRB03KT 9999 FEW030 SCT070 TX17/2814Z TN08/2806Z
PROB30
TEMPO 2718/2723 33006KT
BECMG 2810/2812 19012KT



MetMap, La meteo Aeronautica in un colpo d'occhio ! - Copyright ORBIFLY Dicembre 2007 - Disclaimer

ORBIFLY MET'MAP TEAM :

Programmazione e sviluppo : Alexandra Zaïnal
Concezione : Baudouin d'Aumeries
Aiuto per la programmazione : Marc-Olivier Méhu
Supporto tecnico e logistico : Manuel Goepfert
Aiuto per la traduzione : Arnaldo La Scala

Contatto : metmap@orbifly.com




FONTI E CREDITI :

   NOAA